sensor_id;sensor_type;location;lat;lon;timestamp;temperature;humidity
42841;DHT22;28491;46.898;7.660;2024-02-23T00:01:03;5.10;62.20
42841;DHT22;28491;46.898;7.660;2024-02-23T00:03:29;5.10;63.50
42841;DHT22;28491;46.898;7.660;2024-02-23T00:05:54;5.00;60.30
42841;DHT22;28491;46.898;7.660;2024-02-23T00:08:20;5.00;61.60
42841;DHT22;28491;46.898;7.660;2024-02-23T00:10:45;5.00;60.60
42841;DHT22;28491;46.898;7.660;2024-02-23T00:13:11;4.90;62.20
42841;DHT22;28491;46.898;7.660;2024-02-23T00:15:37;4.90;63.60
42841;DHT22;28491;46.898;7.660;2024-02-23T00:18:02;4.90;64.20
42841;DHT22;28491;46.898;7.660;2024-02-23T00:20:29;4.80;66.10
42841;DHT22;28491;46.898;7.660;2024-02-23T00:22:55;5.00;65.40
42841;DHT22;28491;46.898;7.660;2024-02-23T00:25:20;5.00;66.20
42841;DHT22;28491;46.898;7.660;2024-02-23T00:27:46;5.00;66.00
42841;DHT22;28491;46.898;7.660;2024-02-23T00:30:13;5.00;63.60
42841;DHT22;28491;46.898;7.660;2024-02-23T00:32:38;5.00;62.10
42841;DHT22;28491;46.898;7.660;2024-02-23T00:35:04;5.00;63.50
42841;DHT22;28491;46.898;7.660;2024-02-23T00:37:30;5.00;65.90
42841;DHT22;28491;46.898;7.660;2024-02-23T00:40:04;5.00;65.40
42841;DHT22;28491;46.898;7.660;2024-02-23T00:42:30;5.00;47.80
42841;DHT22;28491;46.898;7.660;2024-02-23T00:44:55;5.00;43.40
42841;DHT22;28491;46.898;7.660;2024-02-23T00:47:21;4.90;22.40
42841;DHT22;28491;46.898;7.660;2024-02-23T00:49:46;4.90;15.30
42841;DHT22;28491;46.898;7.660;2024-02-23T00:52:12;4.90;1.10
42841;DHT22;28491;46.898;7.660;2024-02-23T00:54:37;4.90;1.00
42841;DHT22;28491;46.898;7.660;2024-02-23T00:57:03;4.90;1.00
42841;DHT22;28491;46.898;7.660;2024-02-23T00:59:28;4.80;1.00
42841;DHT22;28491;46.898;7.660;2024-02-23T01:01:55;4.70;1.00
42841;DHT22;28491;46.898;7.660;2024-02-23T01:04:21;4.60;1.00
42841;DHT22;28491;46.898;7.660;2024-02-23T01:06:46;4.50;1.00
42841;DHT22;28491;46.898;7.660;2024-02-23T01:09:12;4.50;1.00
42841;DHT22;28491;46.898;7.660;2024-02-23T01:11:38;4.40;1.00
42841;DHT22;28491;46.898;7.660;2024-02-23T01:14:04;4.40;1.00
42841;DHT22;28491;46.898;7.660;2024-02-23T01:16:30;4.40;1.00
42841;DHT22;28491;46.898;7.660;2024-02-23T01:18:57;4.40;1.00
42841;DHT22;28491;46.898;7.660;2024-02-23T01:21:23;4.40;1.00
42841;DHT22;28491;46.898;7.660;2024-02-23T01:23:49;4.30;1.00
42841;DHT22;28491;46.898;7.660;2024-02-23T01:26:14;4.40;1.00
42841;DHT22;28491;46.898;7.660;2024-02-23T01:28:40;4.40;12.80
42841;DHT22;28491;46.898;7.660;2024-02-23T01:31:08;4.40;1.00
42841;DHT22;28491;46.898;7.660;2024-02-23T01:33:36;4.40;1.00
42841;DHT22;28491;46.898;7.660;2024-02-23T01:36:04;4.40;1.00
42841;DHT22;28491;46.898;7.660;2024-02-23T01:38:30;4.40;6.00
42841;DHT22;28491;46.898;7.660;2024-02-23T01:40:58;4.40;18.70
42841;DHT22;28491;46.898;7.660;2024-02-23T01:43:24;4.40;22.10
42841;DHT22;28491;46.898;7.660;2024-02-23T01:45:49;4.40;20.90
42841;DHT22;28491;46.898;7.660;2024-02-23T01:48:15;4.40;27.10
42841;DHT22;28491;46.898;7.660;2024-02-23T01:50:42;4.40;33.60
42841;DHT22;28491;46.898;7.660;2024-02-23T01:53:10;4.30;24.30
42841;DHT22;28491;46.898;7.660;2024-02-23T01:55:37;4.30;25.20
42841;DHT22;28491;46.898;7.660;2024-02-23T01:58:04;4.30;16.30
42841;DHT22;28491;46.898;7.660;2024-02-23T02:00:30;4.20;20.70
42841;DHT22;28491;46.898;7.660;2024-02-23T02:02:56;4.20;28.00
42841;DHT22;28491;46.898;7.660;2024-02-23T02:05:22;4.20;23.30
42841;DHT22;28491;46.898;7.660;2024-02-23T02:07:50;4.20;28.50
42841;DHT22;28491;46.898;7.660;2024-02-23T02:10:20;4.20;29.40
42841;DHT22;28491;46.898;7.660;2024-02-23T02:12:46;4.20;38.40
42841;DHT22;28491;46.898;7.660;2024-02-23T02:15:11;4.20;27.20
42841;DHT22;28491;46.898;7.660;2024-02-23T02:17:37;4.30;29.70
42841;DHT22;28491;46.898;7.660;2024-02-23T02:20:03;4.20;15.70
42841;DHT22;28491;46.898;7.660;2024-02-23T02:22:32;4.20;11.30
42841;DHT22;28491;46.898;7.660;2024-02-23T02:24:58;4.20;1.00
42841;DHT22;28491;46.898;7.660;2024-02-23T02:27:24;4.20;1.00
42841;DHT22;28491;46.898;7.660;2024-02-23T02:29:53;4.20;1.00
42841;DHT22;28491;46.898;7.660;2024-02-23T02:32:18;4.20;1.00
42841;DHT22;28491;46.898;7.660;2024-02-23T02:34:44;4.30;1.00
42841;DHT22;28491;46.898;7.660;2024-02-23T02:37:09;4.30;1.00
42841;DHT22;28491;46.898;7.660;2024-02-23T02:39:35;4.20;1.00
42841;DHT22;28491;46.898;7.660;2024-02-23T02:42:01;4.20;1.00
42841;DHT22;28491;46.898;7.660;2024-02-23T02:44:27;4.20;1.00
42841;DHT22;28491;46.898;7.660;2024-02-23T02:46:58;4.30;1.00
42841;DHT22;28491;46.898;7.660;2024-02-23T02:49:23;4.30;1.00
42841;DHT22;28491;46.898;7.660;2024-02-23T02:51:49;4.20;1.00
42841;DHT22;28491;46.898;7.660;2024-02-23T02:54:15;4.30;1.00
42841;DHT22;28491;46.898;7.660;2024-02-23T02:56:45;4.20;1.00
42841;DHT22;28491;46.898;7.660;2024-02-23T02:59:12;4.20;99.90
42841;DHT22;28491;46.898;7.660;2024-02-23T03:01:38;4.20;98.40
42841;DHT22;28491;46.898;7.660;2024-02-23T03:04:04;4.10;97.10
42841;DHT22;28491;46.898;7.660;2024-02-23T03:06:30;4.10;99.90
42841;DHT22;28491;46.898;7.660;2024-02-23T03:08:55;4.20;95.90
42841;DHT22;28491;46.898;7.660;2024-02-23T03:11:21;4.20;95.40
42841;DHT22;28491;46.898;7.660;2024-02-23T03:13:46;4.20;97.10
42841;DHT22;28491;46.898;7.660;2024-02-23T03:16:16;4.20;90.00
42841;DHT22;28491;46.898;7.660;2024-02-23T03:18:42;4.20;87.70
42841;DHT22;28491;46.898;7.660;2024-02-23T03:21:07;4.20;91.70
42841;DHT22;28491;46.898;7.660;2024-02-23T03:23:35;4.20;76.60
42841;DHT22;28491;46.898;7.660;2024-02-23T03:26:00;4.20;86.70
42841;DHT22;28491;46.898;7.660;2024-02-23T03:28:26;4.20;82.70
42841;DHT22;28491;46.898;7.660;2024-02-23T03:30:55;4.20;98.60
42841;DHT22;28491;46.898;7.660;2024-02-23T03:33:20;4.30;99.90
42841;DHT22;28491;46.898;7.660;2024-02-23T03:35:46;4.30;1.00
42841;DHT22;28491;46.898;7.660;2024-02-23T03:38:11;4.30;1.00
42841;DHT22;28491;46.898;7.660;2024-02-23T03:40:37;4.30;99.50
42841;DHT22;28491;46.898;7.660;2024-02-23T03:43:03;4.40;91.90
42841;DHT22;28491;46.898;7.660;2024-02-23T03:45:29;4.30;95.40
42841;DHT22;28491;46.898;7.660;2024-02-23T03:47:54;4.30;92.00
42841;DHT22;28491;46.898;7.660;2024-02-23T03:50:20;4.40;91.20
42841;DHT22;28491;46.898;7.660;2024-02-23T03:52:45;4.40;95.10
42841;DHT22;28491;46.898;7.660;2024-02-23T03:55:11;4.30;67.60
42841;DHT22;28491;46.898;7.660;2024-02-23T03:57:37;4.30;78.50
42841;DHT22;28491;46.898;7.660;2024-02-23T04:00:03;4.30;60.60
42841;DHT22;28491;46.898;7.660;2024-02-23T04:02:29;4.30;65.90
42841;DHT22;28491;46.898;7.660;2024-02-23T04:04:55;4.20;77.60
42841;DHT22;28491;46.898;7.660;2024-02-23T04:07:20;4.20;76.60
42841;DHT22;28491;46.898;7.660;2024-02-23T04:09:46;4.20;72.80
42841;DHT22;28491;46.898;7.660;2024-02-23T04:12:21;4.20;75.80
42841;DHT22;28491;46.898;7.660;2024-02-23T04:14:46;4.20;66.60
42841;DHT22;28491;46.898;7.660;2024-02-23T04:17:12;4.20;79.40
42841;DHT22;28491;46.898;7.660;2024-02-23T04:19:38;4.20;73.10
42841;DHT22;28491;46.898;7.660;2024-02-23T04:22:05;4.20;85.90
42841;DHT22;28491;46.898;7.660;2024-02-23T04:24:31;4.20;79.20
42841;DHT22;28491;46.898;7.660;2024-02-23T04:26:56;4.20;90.30
42841;DHT22;28491;46.898;7.660;2024-02-23T04:29:22;4.20;86.80
42841;DHT22;28491;46.898;7.660;2024-02-23T04:31:47;4.20;90.00
42841;DHT22;28491;46.898;7.660;2024-02-23T04:34:15;4.20;81.20
42841;DHT22;28491;46.898;7.660;2024-02-23T04:36:40;4.20;90.50
42841;DHT22;28491;46.898;7.660;2024-02-23T04:39:06;4.20;75.20
42841;DHT22;28491;46.898;7.660;2024-02-23T04:41:31;4.20;85.50
42841;DHT22;28491;46.898;7.660;2024-02-23T04:43:57;4.20;57.60
42841;DHT22;28491;46.898;7.660;2024-02-23T04:46:25;4.20;11.60
42841;DHT22;28491;46.898;7.660;2024-02-23T04:48:51;4.20;13.50
42841;DHT22;28491;46.898;7.660;2024-02-23T04:51:16;4.20;19.50
42841;DHT22;28491;46.898;7.660;2024-02-23T04:53:42;4.20;57.90
42841;DHT22;28491;46.898;7.660;2024-02-23T04:56:08;4.20;71.20
42841;DHT22;28491;46.898;7.660;2024-02-23T04:58:34;4.20;76.20
42841;DHT22;28491;46.898;7.660;2024-02-23T05:01:00;4.10;36.70
42841;DHT22;28491;46.898;7.660;2024-02-23T05:03:25;4.10;11.80
42841;DHT22;28491;46.898;7.660;2024-02-23T05:05:51;4.20;35.80
42841;DHT22;28491;46.898;7.660;2024-02-23T05:08:20;4.10;49.60
42841;DHT22;28491;46.898;7.660;2024-02-23T05:10:48;4.20;1.10
42841;DHT22;28491;46.898;7.660;2024-02-23T05:13:14;4.20;72.20
42841;DHT22;28491;46.898;7.660;2024-02-23T05:15:40;4.20;77.90
42841;DHT22;28491;46.898;7.660;2024-02-23T05:18:06;4.20;67.10
42841;DHT22;28491;46.898;7.660;2024-02-23T05:20:31;4.20;66.40
42841;DHT22;28491;46.898;7.660;2024-02-23T05:22:57;4.20;64.60
42841;DHT22;28491;46.898;7.660;2024-02-23T05:25:22;4.20;77.20
42841;DHT22;28491;46.898;7.660;2024-02-23T05:27:48;4.10;83.50
42841;DHT22;28491;46.898;7.660;2024-02-23T05:30:14;4.10;70.50
42841;DHT22;28491;46.898;7.660;2024-02-23T05:32:39;4.00;84.00
42841;DHT22;28491;46.898;7.660;2024-02-23T05:35:05;4.00;88.80
42841;DHT22;28491;46.898;7.660;2024-02-23T05:37:31;4.00;90.80
42841;DHT22;28491;46.898;7.660;2024-02-23T05:39:56;4.10;75.20
42841;DHT22;28491;46.898;7.660;2024-02-23T05:42:25;4.00;84.00
42841;DHT22;28491;46.898;7.660;2024-02-23T05:44:51;4.00;74.90
42841;DHT22;28491;46.898;7.660;2024-02-23T05:47:16;4.00;73.20
42841;DHT22;28491;46.898;7.660;2024-02-23T05:49:43;4.00;64.20
42841;DHT22;28491;46.898;7.660;2024-02-23T05:52:08;3.90;78.80
42841;DHT22;28491;46.898;7.660;2024-02-23T05:54:35;3.80;81.20
42841;DHT22;28491;46.898;7.660;2024-02-23T05:57:00;3.80;91.30
42841;DHT22;28491;46.898;7.660;2024-02-23T05:59:26;3.70;93.80
42841;DHT22;28491;46.898;7.660;2024-02-23T06:01:52;3.70;93.40
42841;DHT22;28491;46.898;7.660;2024-02-23T06:04:22;3.70;95.60
42841;DHT22;28491;46.898;7.660;2024-02-23T06:06:48;3.70;96.60
42841;DHT22;28491;46.898;7.660;2024-02-23T06:09:13;3.70;92.90
42841;DHT22;28491;46.898;7.660;2024-02-23T06:11:39;3.70;92.30
42841;DHT22;28491;46.898;7.660;2024-02-23T06:14:04;3.60;91.60
42841;DHT22;28491;46.898;7.660;2024-02-23T06:16:30;3.60;91.40
42841;DHT22;28491;46.898;7.660;2024-02-23T06:18:55;3.50;90.70
42841;DHT22;28491;46.898;7.660;2024-02-23T06:21:21;3.50;91.50
42841;DHT22;28491;46.898;7.660;2024-02-23T06:23:47;3.50;93.40
42841;DHT22;28491;46.898;7.660;2024-02-23T06:26:12;3.50;92.90
42841;DHT22;28491;46.898;7.660;2024-02-23T06:28:38;3.50;95.60
42841;DHT22;28491;46.898;7.660;2024-02-23T06:31:07;3.50;94.20
42841;DHT22;28491;46.898;7.660;2024-02-23T06:33:32;3.40;89.70
42841;DHT22;28491;46.898;7.660;2024-02-23T06:35:58;3.30;95.70
42841;DHT22;28491;46.898;7.660;2024-02-23T06:38:24;3.40;99.90
42841;DHT22;28491;46.898;7.660;2024-02-23T06:40:49;3.30;98.10
42841;DHT22;28491;46.898;7.660;2024-02-23T06:43:15;3.20;99.00
42841;DHT22;28491;46.898;7.660;2024-02-23T06:45:40;3.30;99.90
42841;DHT22;28491;46.898;7.660;2024-02-23T06:48:06;3.20;99.80
42841;DHT22;28491;46.898;7.660;2024-02-23T06:50:32;3.20;99.90
42841;DHT22;28491;46.898;7.660;2024-02-23T06:52:57;3.20;1.00
42841;DHT22;28491;46.898;7.660;2024-02-23T06:55:23;3.10;99.90
42841;DHT22;28491;46.898;7.660;2024-02-23T06:57:48;3.10;1.00
42841;DHT22;28491;46.898;7.660;2024-02-23T07:00:14;3.10;1.00
42841;DHT22;28491;46.898;7.660;2024-02-23T07:02:40;3.10;1.00
42841;DHT22;28491;46.898;7.660;2024-02-23T07:05:06;3.10;1.00
42841;DHT22;28491;46.898;7.660;2024-02-23T07:07:32;3.10;1.00
42841;DHT22;28491;46.898;7.660;2024-02-23T07:09:59;3.10;1.00
42841;DHT22;28491;46.898;7.660;2024-02-23T07:12:25;3.10;1.00
42841;DHT22;28491;46.898;7.660;2024-02-23T07:14:53;3.10;99.80
42841;DHT22;28491;46.898;7.660;2024-02-23T07:17:18;3.10;97.80
42841;DHT22;28491;46.898;7.660;2024-02-23T07:19:44;3.00;99.90
42841;DHT22;28491;46.898;7.660;2024-02-23T07:22:10;3.10;1.00
42841;DHT22;28491;46.898;7.660;2024-02-23T07:24:40;3.10;1.00
42841;DHT22;28491;46.898;7.660;2024-02-23T07:27:06;3.00;1.00
42841;DHT22;28491;46.898;7.660;2024-02-23T07:29:31;3.00;1.00
42841;DHT22;28491;46.898;7.660;2024-02-23T07:31:57;3.00;1.00
42841;DHT22;28491;46.898;7.660;2024-02-23T07:34:22;3.10;1.00
42841;DHT22;28491;46.898;7.660;2024-02-23T07:36:51;3.10;1.00
42841;DHT22;28491;46.898;7.660;2024-02-23T07:39:16;3.00;1.00
42841;DHT22;28491;46.898;7.660;2024-02-23T07:41:42;3.10;1.00
42841;DHT22;28491;46.898;7.660;2024-02-23T07:44:07;3.10;1.00
42841;DHT22;28491;46.898;7.660;2024-02-23T07:46:33;3.00;99.90
42841;DHT22;28491;46.898;7.660;2024-02-23T07:48:59;3.10;99.00
42841;DHT22;28491;46.898;7.660;2024-02-23T07:51:24;3.10;99.80
42841;DHT22;28491;46.898;7.660;2024-02-23T07:53:50;3.10;1.00
42841;DHT22;28491;46.898;7.660;2024-02-23T07:56:15;3.20;1.00
42841;DHT22;28491;46.898;7.660;2024-02-23T07:58:42;3.20;1.00
42841;DHT22;28491;46.898;7.660;2024-02-23T08:01:07;3.20;1.00
42841;DHT22;28491;46.898;7.660;2024-02-23T08:03:33;3.30;1.00
42841;DHT22;28491;46.898;7.660;2024-02-23T08:05:59;3.30;1.00
42841;DHT22;28491;46.898;7.660;2024-02-23T08:08:25;3.30;1.00
42841;DHT22;28491;46.898;7.660;2024-02-23T08:10:52;3.40;1.00
42841;DHT22;28491;46.898;7.660;2024-02-23T08:13:18;3.50;1.00
42841;DHT22;28491;46.898;7.660;2024-02-23T08:15:44;3.50;1.00
42841;DHT22;28491;46.898;7.660;2024-02-23T08:18:09;3.50;1.00
42841;DHT22;28491;46.898;7.660;2024-02-23T08:20:36;3.60;1.00
42841;DHT22;28491;46.898;7.660;2024-02-23T08:23:02;3.60;1.00
42841;DHT22;28491;46.898;7.660;2024-02-23T08:25:27;3.70;1.00
42841;DHT22;28491;46.898;7.660;2024-02-23T08:27:56;3.70;1.00
42841;DHT22;28491;46.898;7.660;2024-02-23T08:30:23;3.80;1.00
42841;DHT22;28491;46.898;7.660;2024-02-23T08:32:48;3.90;1.00
42841;DHT22;28491;46.898;7.660;2024-02-23T08:35:15;3.90;1.00
42841;DHT22;28491;46.898;7.660;2024-02-23T08:37:40;4.00;1.00
42841;DHT22;28491;46.898;7.660;2024-02-23T08:40:08;4.00;1.00
42841;DHT22;28491;46.898;7.660;2024-02-23T08:42:34;4.10;1.00
42841;DHT22;28491;46.898;7.660;2024-02-23T08:44:59;4.20;1.00
42841;DHT22;28491;46.898;7.660;2024-02-23T08:47:25;4.30;1.00
42841;DHT22;28491;46.898;7.660;2024-02-23T08:49:53;4.30;1.00
42841;DHT22;28491;46.898;7.660;2024-02-23T08:52:19;4.30;1.00
42841;DHT22;28491;46.898;7.660;2024-02-23T08:54:44;4.30;1.00
42841;DHT22;28491;46.898;7.660;2024-02-23T08:57:10;4.40;95.80
42841;DHT22;28491;46.898;7.660;2024-02-23T08:59:35;4.50;94.20
42841;DHT22;28491;46.898;7.660;2024-02-23T09:02:01;4.50;75.70
42841;DHT22;28491;46.898;7.660;2024-02-23T09:04:27;4.60;1.00
42841;DHT22;28491;46.898;7.660;2024-02-23T09:06:53;4.60;1.00
42841;DHT22;28491;46.898;7.660;2024-02-23T09:09:19;4.60;1.00
42841;DHT22;28491;46.898;7.660;2024-02-23T09:11:44;4.70;1.00
42841;DHT22;28491;46.898;7.660;2024-02-23T09:14:10;4.70;99.90
42841;DHT22;28491;46.898;7.660;2024-02-23T09:16:35;4.70;96.30
42841;DHT22;28491;46.898;7.660;2024-02-23T09:19:01;4.80;98.70
42841;DHT22;28491;46.898;7.660;2024-02-23T09:21:26;4.80;98.20
42841;DHT22;28491;46.898;7.660;2024-02-23T09:23:52;4.80;1.00
42841;DHT22;28491;46.898;7.660;2024-02-23T09:26:18;4.80;51.50
42841;DHT22;28491;46.898;7.660;2024-02-23T09:28:43;4.90;94.10
42841;DHT22;28491;46.898;7.660;2024-02-23T09:31:10;4.90;95.80
42841;DHT22;28491;46.898;7.660;2024-02-23T09:33:36;4.80;82.90
42841;DHT22;28491;46.898;7.660;2024-02-23T09:36:02;4.90;89.40
42841;DHT22;28491;46.898;7.660;2024-02-23T09:38:28;4.90;97.50
42841;DHT22;28491;46.898;7.660;2024-02-23T09:40:53;5.00;93.10
42841;DHT22;28491;46.898;7.660;2024-02-23T09:43:21;5.00;59.60
42841;DHT22;28491;46.898;7.660;2024-02-23T09:45:51;5.00;90.00
42841;DHT22;28491;46.898;7.660;2024-02-23T09:48:18;5.00;74.80
42841;DHT22;28491;46.898;7.660;2024-02-23T09:50:44;5.10;98.60
42841;DHT22;28491;46.898;7.660;2024-02-23T09:53:11;5.20;98.20
42841;DHT22;28491;46.898;7.660;2024-02-23T09:55:38;5.20;91.30
42841;DHT22;28491;46.898;7.660;2024-02-23T09:58:04;5.20;94.30
42841;DHT22;28491;46.898;7.660;2024-02-23T10:00:33;5.30;86.50
42841;DHT22;28491;46.898;7.660;2024-02-23T10:03:00;5.30;82.80
42841;DHT22;28491;46.898;7.660;2024-02-23T10:05:30;5.30;91.00
42841;DHT22;28491;46.898;7.660;2024-02-23T10:07:56;5.30;88.40
42841;DHT22;28491;46.898;7.660;2024-02-23T10:10:45;5.30;93.90
42841;DHT22;28491;46.898;7.660;2024-02-23T10:13:11;5.40;1.00
42841;DHT22;28491;46.898;7.660;2024-02-23T10:15:37;5.50;51.00
42841;DHT22;28491;46.898;7.660;2024-02-23T10:18:10;5.50;72.50
42841;DHT22;28491;46.898;7.660;2024-02-23T10:20:36;5.60;65.40
42841;DHT22;28491;46.898;7.660;2024-02-23T10:23:07;5.60;17.70
42841;DHT22;28491;46.898;7.660;2024-02-23T10:25:36;5.60;1.00
42841;DHT22;28491;46.898;7.660;2024-02-23T10:28:06;5.70;4.90
42841;DHT22;28491;46.898;7.660;2024-02-23T10:30:32;5.70;11.40
42841;DHT22;28491;46.898;7.660;2024-02-23T10:32:58;5.80;1.00
42841;DHT22;28491;46.898;7.660;2024-02-23T10:35:24;5.80;96.30
42841;DHT22;28491;46.898;7.660;2024-02-23T10:37:51;5.80;90.90
42841;DHT22;28491;46.898;7.660;2024-02-23T10:40:20;5.90;80.00
42841;DHT22;28491;46.898;7.660;2024-02-23T10:42:48;5.90;85.40
42841;DHT22;28491;46.898;7.660;2024-02-23T10:45:19;5.90;94.80
42841;DHT22;28491;46.898;7.660;2024-02-23T10:47:50;6.00;1.00
42841;DHT22;28491;46.898;7.660;2024-02-23T10:50:17;6.00;91.90
42841;DHT22;28491;46.898;7.660;2024-02-23T10:52:45;6.10;90.10
42841;DHT22;28491;46.898;7.660;2024-02-23T10:55:14;6.00;83.90
42841;DHT22;28491;46.898;7.660;2024-02-23T10:57:40;6.10;79.90
42841;DHT22;28491;46.898;7.660;2024-02-23T11:00:08;6.20;82.40
42841;DHT22;28491;46.898;7.660;2024-02-23T11:02:44;6.30;77.20
42841;DHT22;28491;46.898;7.660;2024-02-23T11:05:11;6.40;66.60
42841;DHT22;28491;46.898;7.660;2024-02-23T11:07:41;6.40;72.60
42841;DHT22;28491;46.898;7.660;2024-02-23T11:10:07;6.40;85.40
42841;DHT22;28491;46.898;7.660;2024-02-23T11:12:34;6.40;87.60
42841;DHT22;28491;46.898;7.660;2024-02-23T11:15:01;6.30;80.00
42841;DHT22;28491;46.898;7.660;2024-02-23T11:17:31;6.30;81.50
42841;DHT22;28491;46.898;7.660;2024-02-23T11:19:57;6.30;79.00
42841;DHT22;28491;46.898;7.660;2024-02-23T11:22:27;6.30;81.50
42841;DHT22;28491;46.898;7.660;2024-02-23T11:25:00;6.40;74.80
42841;DHT22;28491;46.898;7.660;2024-02-23T11:27:30;6.50;71.90
42841;DHT22;28491;46.898;7.660;2024-02-23T11:30:03;6.50;72.80
42841;DHT22;28491;46.898;7.660;2024-02-23T11:32:40;6.60;64.70
42841;DHT22;28491;46.898;7.660;2024-02-23T11:35:07;6.60;66.70
42841;DHT22;28491;46.898;7.660;2024-02-23T11:37:53;6.60;69.90
42841;DHT22;28491;46.898;7.660;2024-02-23T11:40:30;6.60;64.30
42841;DHT22;28491;46.898;7.660;2024-02-23T11:42:56;6.70;65.00
42841;DHT22;28491;46.898;7.660;2024-02-23T11:45:23;6.70;58.70
42841;DHT22;28491;46.898;7.660;2024-02-23T11:47:49;6.70;44.80
42841;DHT22;28491;46.898;7.660;2024-02-23T11:50:14;6.70;67.60
42841;DHT22;28491;46.898;7.660;2024-02-23T11:52:42;6.80;70.90
42841;DHT22;28491;46.898;7.660;2024-02-23T11:55:07;6.80;48.70
42841;DHT22;28491;46.898;7.660;2024-02-23T11:57:36;6.90;64.00
42841;DHT22;28491;46.898;7.660;2024-02-23T12:00:04;7.00;46.20
42841;DHT22;28491;46.898;7.660;2024-02-23T12:02:32;7.00;60.50
42841;DHT22;28491;46.898;7.660;2024-02-23T12:04:57;7.00;21.20
42841;DHT22;28491;46.898;7.660;2024-02-23T12:07:23;7.00;1.00
42841;DHT22;28491;46.898;7.660;2024-02-23T12:09:51;7.10;14.10
42841;DHT22;28491;46.898;7.660;2024-02-23T12:12:17;7.10;1.00
42841;DHT22;28491;46.898;7.660;2024-02-23T12:14:43;7.10;1.00
42841;DHT22;28491;46.898;7.660;2024-02-23T12:17:08;7.10;1.00
42841;DHT22;28491;46.898;7.660;2024-02-23T12:19:40;7.20;1.00
42841;DHT22;28491;46.898;7.660;2024-02-23T12:22:06;7.20;1.00
42841;DHT22;28491;46.898;7.660;2024-02-23T12:24:32;7.20;1.00
42841;DHT22;28491;46.898;7.660;2024-02-23T12:26:58;7.20;7.00
42841;DHT22;28491;46.898;7.660;2024-02-23T12:29:24;7.20;5.90
42841;DHT22;28491;46.898;7.660;2024-02-23T12:31:49;7.20;9.20
42841;DHT22;28491;46.898;7.660;2024-02-23T12:34:16;7.20;30.60
42841;DHT22;28491;46.898;7.660;2024-02-23T12:36:41;7.40;1.00
42841;DHT22;28491;46.898;7.660;2024-02-23T12:39:08;7.50;1.00
42841;DHT22;28491;46.898;7.660;2024-02-23T12:41:33;7.50;1.00
42841;DHT22;28491;46.898;7.660;2024-02-23T12:43:59;7.50;1.00
42841;DHT22;28491;46.898;7.660;2024-02-23T12:46:25;7.50;1.00
42841;DHT22;28491;46.898;7.660;2024-02-23T12:48:51;7.40;1.00
42841;DHT22;28491;46.898;7.660;2024-02-23T12:51:17;7.40;1.00
42841;DHT22;28491;46.898;7.660;2024-02-23T12:53:43;7.40;1.00
42841;DHT22;28491;46.898;7.660;2024-02-23T12:56:13;7.40;1.00
42841;DHT22;28491;46.898;7.660;2024-02-23T12:58:43;7.40;1.00
42841;DHT22;28491;46.898;7.660;2024-02-23T13:01:09;7.40;1.00
42841;DHT22;28491;46.898;7.660;2024-02-23T13:03:37;7.40;1.00
42841;DHT22;28491;46.898;7.660;2024-02-23T13:06:04;7.50;1.00
42841;DHT22;28491;46.898;7.660;2024-02-23T13:08:30;7.50;1.00
42841;DHT22;28491;46.898;7.660;2024-02-23T13:10:56;7.50;1.00
42841;DHT22;28491;46.898;7.660;2024-02-23T13:13:22;7.40;1.00
42841;DHT22;28491;46.898;7.660;2024-02-23T13:15:50;7.40;1.00
42841;DHT22;28491;46.898;7.660;2024-02-23T13:18:16;7.50;1.00
42841;DHT22;28491;46.898;7.660;2024-02-23T13:20:41;7.60;1.00
42841;DHT22;28491;46.898;7.660;2024-02-23T13:23:08;7.60;1.00
42841;DHT22;28491;46.898;7.660;2024-02-23T13:25:35;7.70;1.00
42841;DHT22;28491;46.898;7.660;2024-02-23T13:28:00;7.80;1.00
42841;DHT22;28491;46.898;7.660;2024-02-23T13:30:26;7.70;1.00
42841;DHT22;28491;46.898;7.660;2024-02-23T13:32:53;7.70;1.00
42841;DHT22;28491;46.898;7.660;2024-02-23T13:35:18;7.70;1.00
42841;DHT22;28491;46.898;7.660;2024-02-23T13:37:44;7.70;1.00
42841;DHT22;28491;46.898;7.660;2024-02-23T13:40:10;7.70;1.00
42841;DHT22;28491;46.898;7.660;2024-02-23T13:42:37;7.80;1.00
42841;DHT22;28491;46.898;7.660;2024-02-23T13:45:05;7.80;1.00
42841;DHT22;28491;46.898;7.660;2024-02-23T13:47:31;7.80;1.00
42841;DHT22;28491;46.898;7.660;2024-02-23T13:49:56;7.80;1.00
42841;DHT22;28491;46.898;7.660;2024-02-23T13:52:22;7.90;1.00
42841;DHT22;28491;46.898;7.660;2024-02-23T13:54:47;7.80;1.00
42841;DHT22;28491;46.898;7.660;2024-02-23T13:57:13;7.80;1.00
42841;DHT22;28491;46.898;7.660;2024-02-23T13:59:38;7.80;1.00
42841;DHT22;28491;46.898;7.660;2024-02-23T14:02:04;7.90;1.00
42841;DHT22;28491;46.898;7.660;2024-02-23T14:04:30;7.90;1.00
42841;DHT22;28491;46.898;7.660;2024-02-23T14:06:56;7.80;1.00
42841;DHT22;28491;46.898;7.660;2024-02-23T14:09:21;7.90;4.00
42841;DHT22;28491;46.898;7.660;2024-02-23T14:11:47;7.90;1.00
42841;DHT22;28491;46.898;7.660;2024-02-23T14:14:12;7.80;1.00
42841;DHT22;28491;46.898;7.660;2024-02-23T14:16:39;7.70;1.00
42841;DHT22;28491;46.898;7.660;2024-02-23T14:19:04;7.60;1.00
42841;DHT22;28491;46.898;7.660;2024-02-23T14:21:30;7.70;1.00
42841;DHT22;28491;46.898;7.660;2024-02-23T14:23:56;7.80;1.00
42841;DHT22;28491;46.898;7.660;2024-02-23T14:26:22;7.70;1.00
42841;DHT22;28491;46.898;7.660;2024-02-23T14:28:47;7.80;1.00
42841;DHT22;28491;46.898;7.660;2024-02-23T14:31:14;7.80;1.00
42841;DHT22;28491;46.898;7.660;2024-02-23T14:33:40;7.80;1.00
42841;DHT22;28491;46.898;7.660;2024-02-23T14:36:06;7.80;1.00
42841;DHT22;28491;46.898;7.660;2024-02-23T14:38:31;7.80;1.00
42841;DHT22;28491;46.898;7.660;2024-02-23T14:40:57;7.70;1.00
42841;DHT22;28491;46.898;7.660;2024-02-23T14:43:23;7.80;1.00
42841;DHT22;28491;46.898;7.660;2024-02-23T14:45:49;7.80;1.00
42841;DHT22;28491;46.898;7.660;2024-02-23T14:48:16;7.70;1.00
42841;DHT22;28491;46.898;7.660;2024-02-23T14:50:42;7.80;1.00
42841;DHT22;28491;46.898;7.660;2024-02-23T14:53:08;7.90;1.00
42841;DHT22;28491;46.898;7.660;2024-02-23T14:55:34;7.90;1.00
42841;DHT22;28491;46.898;7.660;2024-02-23T14:58:00;7.80;1.00
42841;DHT22;28491;46.898;7.660;2024-02-23T15:00:25;7.90;1.00
42841;DHT22;28491;46.898;7.660;2024-02-23T15:02:52;7.80;1.00
42841;DHT22;28491;46.898;7.660;2024-02-23T15:05:18;7.80;1.00
42841;DHT22;28491;46.898;7.660;2024-02-23T15:07:44;7.80;1.00
42841;DHT22;28491;46.898;7.660;2024-02-23T15:10:09;7.90;1.00
42841;DHT22;28491;46.898;7.660;2024-02-23T15:12:36;8.00;1.00
42841;DHT22;28491;46.898;7.660;2024-02-23T15:15:01;8.00;1.00
42841;DHT22;28491;46.898;7.660;2024-02-23T15:17:28;8.00;1.00
42841;DHT22;28491;46.898;7.660;2024-02-23T15:19:54;8.00;1.00
42841;DHT22;28491;46.898;7.660;2024-02-23T15:22:22;8.00;1.00
42841;DHT22;28491;46.898;7.660;2024-02-23T15:25:23;8.00;1.00
42841;DHT22;28491;46.898;7.660;2024-02-23T15:28:09;7.90;1.00
42841;DHT22;28491;46.898;7.660;2024-02-23T15:30:39;7.80;1.00
42841;DHT22;28491;46.898;7.660;2024-02-23T15:33:05;7.70;1.00
42841;DHT22;28491;46.898;7.660;2024-02-23T15:35:30;7.60;1.00
42841;DHT22;28491;46.898;7.660;2024-02-23T15:41:25;7.40;1.00
42841;DHT22;28491;46.898;7.660;2024-02-23T15:43:51;7.30;1.00
42841;DHT22;28491;46.898;7.660;2024-02-23T15:46:19;7.30;1.00
42841;DHT22;28491;46.898;7.660;2024-02-23T15:48:47;7.20;1.20
42841;DHT22;28491;46.898;7.660;2024-02-23T15:51:13;7.20;26.70